createdAt,value
2023-01-08T00:00:55.000Z,100320.41
2023-01-08T00:03:23.869Z,100309.28
2023-01-08T00:05:52.791Z,100296.66
2023-01-08T00:08:24.137Z,100297.06
2023-01-08T00:10:57.881Z,100295.91
2023-01-08T00:13:27.208Z,100295.84
2023-01-08T00:15:56.161Z,100300.66
2023-01-08T00:18:27.179Z,100299.84
2023-01-08T00:20:55.738Z,100292.00
2023-01-08T00:23:25.706Z,100294.69
2023-01-08T00:25:54.329Z,100298.22
2023-01-08T00:28:22.870Z,100286.72
2023-01-08T00:30:51.508Z,100296.38
2023-01-08T00:33:19.972Z,100292.72
2023-01-08T00:35:49.083Z,100296.38
2023-01-08T00:38:17.630Z,100299.44
2023-01-08T00:40:50.642Z,100290.94
2023-01-08T00:43:21.348Z,100295.81
2023-01-08T00:45:54.225Z,100283.38
2023-01-08T00:48:23.530Z,100252.53
2023-01-08T00:50:53.138Z,100267.72
2023-01-08T00:53:23.796Z,100272.69
2023-01-08T00:56:02.525Z,100265.03
2023-01-08T00:58:31.604Z,100258.72
2023-01-08T01:01:00.414Z,100262.22
2023-01-08T01:03:31.405Z,100263.50
2023-01-08T01:06:05.952Z,100261.78
2023-01-08T01:08:34.911Z,100265.44
2023-01-08T01:11:09.201Z,100261.66
2023-01-08T01:13:37.848Z,100251.41
2023-01-08T01:16:07.551Z,100258.41
2023-01-08T01:18:36.196Z,100257.41
2023-01-08T01:21:11.747Z,100249.47
2023-01-08T01:23:42.335Z,100253.50
2023-01-08T01:26:21.690Z,100247.44
2023-01-08T01:28:52.613Z,100265.44
2023-01-08T01:31:23.023Z,100270.38
2023-01-08T01:33:52.730Z,100264.88
2023-01-08T01:36:24.643Z,100251.13
2023-01-08T01:38:56.211Z,100256.44
2023-01-08T01:41:29.834Z,100252.94
2023-01-08T01:44:00.792Z,100254.16
2023-01-08T01:46:38.559Z,100239.16
2023-01-08T01:49:12.291Z,100259.63
2023-01-08T01:51:49.349Z,100257.16
2023-01-08T01:54:19.621Z,100257.59
2023-01-08T01:56:51.004Z,100256.06
2023-01-08T01:59:19.522Z,100261.50
2023-01-08T02:01:49.336Z,100267.34
2023-01-08T02:04:18.262Z,100272.03
2023-01-08T02:06:55.838Z,100267.81
2023-01-08T02:09:44.689Z,100268.03
2023-01-08T02:12:20.778Z,100268.97
2023-01-08T02:15:05.120Z,100279.69
2023-01-08T02:17:40.807Z,100264.88
2023-01-08T02:20:15.869Z,100265.25
2023-01-08T02:23:21.807Z,100266.50
2023-01-08T02:26:19.690Z,100259.50
2023-01-08T02:28:54.856Z,100258.75
2023-01-08T02:31:27.813Z,100251.50
2023-01-08T02:33:57.038Z,100248.44
2023-01-08T02:36:37.158Z,100247.28
2023-01-08T02:39:22.223Z,100248.41
2023-01-08T02:42:14.372Z,100247.13
2023-01-08T02:45:08.090Z,100253.41
2023-01-08T02:47:42.739Z,100245.59
2023-01-08T02:50:25.688Z,100236.66
2023-01-08T02:53:04.322Z,100236.19
2023-01-08T02:55:37.203Z,100249.41
2023-01-08T02:58:09.435Z,100240.19
2023-01-08T03:00:38.888Z,100232.13
2023-01-08T03:03:17.098Z,100243.03
2023-01-08T03:05:52.513Z,100244.63
2023-01-08T03:08:24.125Z,100243.78
2023-01-08T03:10:59.976Z,100236.84
2023-01-08T03:13:38.989Z,100236.00
2023-01-08T03:16:13.469Z,100242.56
2023-01-08T03:18:48.260Z,100234.63
2023-01-08T03:21:20.047Z,100229.53
2023-01-08T03:23:50.343Z,100232.16
2023-01-08T03:26:24.491Z,100236.91
2023-01-08T03:28:58.132Z,100216.22
2023-01-08T03:31:30.331Z,100213.13
2023-01-08T03:34:03.915Z,100223.19
2023-01-08T03:36:34.249Z,100210.94
2023-01-08T03:39:12.531Z,100216.28
2023-01-08T03:41:44.808Z,100203.13
2023-01-08T03:44:17.809Z,100218.06
2023-01-08T03:46:51.738Z,100206.00
2023-01-08T03:49:22.047Z,100207.91
2023-01-08T03:51:50.489Z,100217.22
2023-01-08T03:54:21.780Z,100201.06
2023-01-08T03:56:50.724Z,100202.69
2023-01-08T03:59:21.917Z,100204.84
2023-01-08T04:01:50.736Z,100191.88
2023-01-08T04:04:19.931Z,100181.78
2023-01-08T04:06:48.651Z,100194.88
2023-01-08T04:09:17.489Z,100184.84
2023-01-08T04:11:46.434Z,100195.81
2023-01-08T04:14:14.938Z,100202.78
2023-01-08T04:16:45.262Z,100187.47
2023-01-08T04:19:14.586Z,100195.03
2023-01-08T04:21:43.162Z,100192.78
2023-01-08T04:24:13.451Z,100193.81
2023-01-08T04:26:41.852Z,100194.78
2023-01-08T04:29:10.578Z,100182.66
2023-01-08T04:31:39.268Z,100177.25
2023-01-08T04:34:09.784Z,100192.50
2023-01-08T04:36:38.485Z,100178.97
2023-01-08T04:39:07.330Z,100189.84
2023-01-08T04:41:36.045Z,100190.34
2023-01-08T04:44:05.715Z,100190.63
2023-01-08T04:46:34.424Z,100177.06
2023-01-08T04:49:04.670Z,100179.50
2023-01-08T04:51:34.787Z,100183.28
2023-01-08T04:54:04.183Z,100174.63
2023-01-08T04:56:32.920Z,100173.88
2023-01-08T04:59:02.471Z,100170.13
2023-01-08T05:01:31.221Z,100155.28
2023-01-08T05:04:02.408Z,100174.34
2023-01-08T05:06:33.869Z,100161.53
2023-01-08T05:09:02.705Z,100164.59
2023-01-08T05:11:31.337Z,100167.34
2023-01-08T05:13:59.884Z,100168.88
2023-01-08T05:16:28.510Z,100170.38
2023-01-08T05:18:57.020Z,100174.34
2023-01-08T05:21:25.748Z,100167.41
2023-01-08T05:23:56.337Z,100177.13
2023-01-08T05:26:25.059Z,100177.59
2023-01-08T05:28:54.261Z,100172.28
2023-01-08T05:31:22.872Z,100173.03
2023-01-08T05:33:51.790Z,100169.59
2023-01-08T05:36:20.632Z,100165.00
2023-01-08T05:38:49.370Z,100164.25
2023-01-08T05:41:19.436Z,100167.22
2023-01-08T05:43:48.213Z,100172.38
2023-01-08T05:46:17.460Z,100180.28
2023-01-08T05:48:46.259Z,100175.34
2023-01-08T05:51:14.848Z,100173.44
2023-01-08T05:53:43.533Z,100171.19
2023-01-08T05:56:13.876Z,100177.03
2023-01-08T05:58:44.303Z,100179.97
2023-01-08T06:01:16.647Z,100175.31
2023-01-08T06:03:45.292Z,100178.63
2023-01-08T06:06:15.986Z,100179.28
2023-01-08T06:08:47.525Z,100182.69
2023-01-08T06:11:16.343Z,100179.91
2023-01-08T06:13:46.663Z,100169.41
2023-01-08T06:16:15.603Z,100180.25
2023-01-08T06:18:44.120Z,100184.47
2023-01-08T06:21:13.380Z,100193.72
2023-01-08T06:23:41.804Z,100184.53
2023-01-08T06:26:10.484Z,100185.44
2023-01-08T06:28:39.398Z,100182.91
2023-01-08T06:31:09.724Z,100182.97
2023-01-08T06:33:38.828Z,100174.72
2023-01-08T06:36:08.616Z,100176.28
2023-01-08T06:38:38.168Z,100176.44
2023-01-08T06:41:10.283Z,100183.00
2023-01-08T06:43:40.210Z,100193.25
2023-01-08T06:46:11.259Z,100190.19
2023-01-08T06:48:39.961Z,100193.81
2023-01-08T06:51:12.467Z,100165.88
2023-01-08T06:53:41.294Z,100171.59
2023-01-08T06:56:11.127Z,100179.25
2023-01-08T06:58:47.574Z,100181.97
2023-01-08T07:01:29.506Z,100184.75
2023-01-08T07:03:58.156Z,100183.47
2023-01-08T07:06:27.280Z,100176.53
2023-01-08T07:08:57.262Z,100177.19
2023-01-08T07:11:25.853Z,100174.59
2023-01-08T07:13:57.995Z,100175.78
2023-01-08T07:16:28.478Z,100175.50
2023-01-08T07:18:57.170Z,100168.22
2023-01-08T07:21:25.954Z,100169.66
2023-01-08T07:23:54.985Z,100179.81
2023-01-08T07:26:24.289Z,100191.31
2023-01-08T07:28:53.570Z,100189.91
2023-01-08T07:32:07.869Z,100186.88
2023-01-08T07:34:37.146Z,100179.47
2023-01-08T07:37:09.037Z,100172.75
2023-01-08T07:39:37.760Z,100158.59
2023-01-08T07:42:07.849Z,100166.81
2023-01-08T07:44:36.155Z,100160.88
2023-01-08T07:47:06.384Z,100166.47
2023-01-08T07:49:34.777Z,100159.88
2023-01-08T07:52:04.087Z,100164.66
2023-01-08T07:54:34.127Z,100156.41
2023-01-08T07:57:02.785Z,100155.41
2023-01-08T07:59:32.172Z,100149.31
2023-01-08T08:02:02.107Z,100146.63
2023-01-08T08:04:36.989Z,100139.69
2023-01-08T08:07:05.705Z,100144.75
2023-01-08T08:09:36.244Z,100124.31
2023-01-08T08:12:06.804Z,100131.75
2023-01-08T08:14:35.735Z,100134.41
2023-01-08T08:17:04.211Z,100139.06
2023-01-08T08:19:34.693Z,100131.97
2023-01-08T08:22:03.324Z,100137.28
2023-01-08T08:24:31.738Z,100135.00
2023-01-08T08:27:00.299Z,100143.06
2023-01-08T08:29:29.201Z,100139.50
2023-01-08T08:32:03.444Z,100138.00
2023-01-08T08:34:35.119Z,100141.69
2023-01-08T08:37:05.252Z,100131.75
2023-01-08T08:39:33.938Z,100119.75
2023-01-08T08:42:03.148Z,100127.25
2023-01-08T08:44:31.846Z,100133.16
2023-01-08T08:47:00.817Z,100129.94
2023-01-08T08:49:30.550Z,100125.00
2023-01-08T08:52:00.512Z,100130.78
2023-01-08T08:54:29.216Z,100128.75
2023-01-08T08:57:05.932Z,100132.84
2023-01-08T08:59:38.031Z,100129.50
2023-01-08T09:02:08.973Z,100116.53
2023-01-08T09:04:38.937Z,100123.44
2023-01-08T09:07:09.822Z,100131.41
2023-01-08T09:09:38.239Z,100123.31
2023-01-08T09:14:54.772Z,100116.31
2023-01-08T09:17:27.264Z,100106.53
2023-01-08T09:20:04.574Z,100109.44
2023-01-08T09:22:34.456Z,100098.00
2023-01-08T09:25:04.446Z,100100.28
2023-01-08T09:27:33.678Z,100093.28
2023-01-08T09:30:03.482Z,100098.34
2023-01-08T09:32:33.189Z,100091.97
2023-01-08T09:35:01.784Z,100100.28
2023-01-08T09:37:30.954Z,100103.78
2023-01-08T09:40:03.395Z,100086.97
2023-01-08T09:42:33.783Z,100089.22
2023-01-08T09:45:04.804Z,100089.53
2023-01-08T09:47:40.761Z,100090.78
2023-01-08T09:50:15.942Z,100087.56
2023-01-08T09:52:47.536Z,100085.47
2023-01-08T09:55:18.967Z,100092.84
2023-01-08T09:57:49.697Z,100094.34
2023-01-08T10:00:23.185Z,100088.78
2023-01-08T10:02:54.152Z,100086.53
2023-01-08T10:05:23.271Z,100092.03
2023-01-08T10:07:52.163Z,100085.19
2023-01-08T10:10:28.046Z,100082.38
2023-01-08T10:12:57.478Z,100080.44
2023-01-08T10:15:34.354Z,100088.78
2023-01-08T10:18:07.344Z,100079.59
2023-01-08T10:20:37.868Z,100077.19
2023-01-08T10:23:17.843Z,100082.75
2023-01-08T10:25:58.486Z,100080.69
2023-01-08T10:28:30.556Z,100067.44
2023-01-08T10:31:08.587Z,100067.41
2023-01-08T10:33:45.240Z,100060.91
2023-01-08T10:36:21.528Z,100062.66
2023-01-08T10:38:57.344Z,100055.78
2023-01-08T10:41:29.522Z,100059.22
2023-01-08T10:44:02.444Z,100057.09
2023-01-08T10:46:37.483Z,100052.13
2023-01-08T10:49:09.894Z,100051.94
2023-01-08T10:51:39.093Z,100048.72
2023-01-08T10:54:22.465Z,100043.13
2023-01-08T10:56:53.974Z,100038.53
2023-01-08T10:59:23.879Z,100042.50
2023-01-08T11:01:59.671Z,100034.38
2023-01-08T11:04:33.850Z,100035.75
2023-01-08T11:07:04.634Z,100036.94
2023-01-08T11:09:37.869Z,100025.66
2023-01-08T11:12:42.362Z,100028.66
2023-01-08T11:15:38.933Z,100020.38
2023-01-08T11:18:20.239Z,100028.16
2023-01-08T11:20:51.616Z,100015.47
2023-01-08T11:23:24.207Z,100000.34
2023-01-08T11:26:09.745Z,100000.31
2023-01-08T11:28:55.173Z,100001.88
2023-01-08T11:31:34.841Z,99994.56
2023-01-08T11:34:13.914Z,99984.66
2023-01-08T11:36:51.942Z,99982.53
2023-01-08T11:39:21.319Z,99969.13
2023-01-08T11:42:11.580Z,99966.63
2023-01-08T11:45:03.199Z,99977.00
2023-01-08T11:48:09.555Z,99974.44
2023-01-08T11:50:55.908Z,99980.59
2023-01-08T11:53:32.638Z,99964.47
2023-01-08T11:56:19.375Z,99975.03
2023-01-08T11:59:20.069Z,99959.78
2023-01-08T12:02:02.978Z,99961.78
2023-01-08T12:05:33.413Z,99950.19
2023-01-08T12:08:10.360Z,99945.22
2023-01-08T12:10:53.638Z,99948.78
2023-01-08T12:13:48.182Z,99942.84
2023-01-08T12:16:40.512Z,99942.25
2023-01-08T12:19:27.348Z,99937.94
2023-01-08T12:22:20.006Z,99928.53
2023-01-08T12:25:08.730Z,99930.63
2023-01-08T12:27:56.791Z,99932.03
2023-01-08T12:30:42.057Z,99932.97
2023-01-08T12:33:16.819Z,99923.69
2023-01-08T12:35:56.090Z,99915.16
2023-01-08T12:38:32.006Z,99906.63
2023-01-08T12:41:06.663Z,99891.88
2023-01-08T12:43:50.508Z,99884.69
2023-01-08T12:46:21.189Z,99884.00
2023-01-08T12:52:36.919Z,99881.13
2023-01-08T12:55:28.940Z,99873.22
2023-01-08T12:58:10.521Z,99876.19
2023-01-08T13:00:53.475Z,99878.00
2023-01-08T13:03:29.852Z,99879.38
2023-01-08T13:06:13.712Z,99873.16
2023-01-08T13:08:50.465Z,99862.63
2023-01-08T13:11:30.532Z,99870.94
2023-01-08T13:14:14.038Z,99873.91
2023-01-08T13:16:46.412Z,99864.66
2023-01-08T13:19:27.467Z,99865.97
2023-01-08T13:21:58.789Z,99862.31
2023-01-08T13:24:35.723Z,99858.28
2023-01-08T13:27:31.750Z,99852.25
2023-01-08T13:30:04.312Z,99839.47
2023-01-08T13:32:49.792Z,99841.94
2023-01-08T13:35:27.522Z,99838.63
2023-01-08T13:38:15.817Z,99828.91
2023-01-08T13:40:59.379Z,99828.09
2023-01-08T13:43:31.432Z,99821.75
2023-01-08T13:46:17.260Z,99824.84
2023-01-08T13:48:56.951Z,99821.59
2023-01-08T13:51:42.119Z,99816.22
2023-01-08T13:54:26.949Z,99810.81
2023-01-08T13:57:06.011Z,99811.09
2023-01-08T13:59:46.281Z,99823.06
2023-01-08T14:02:34.169Z,99802.69
2023-01-08T14:05:05.379Z,99811.66
2023-01-08T14:07:39.752Z,99807.25
2023-01-08T14:10:13.074Z,99791.06
2023-01-08T14:12:44.019Z,99793.22
2023-01-08T14:15:26.784Z,99785.31
2023-01-08T14:17:58.583Z,99794.25
2023-01-08T14:20:35.352Z,99788.84
2023-01-08T14:23:11.273Z,99780.16
2023-01-08T14:25:41.182Z,99786.69
2023-01-08T14:28:19.842Z,99790.53
2023-01-08T14:30:56.103Z,99788.56
2023-01-08T14:33:30.835Z,99774.69
2023-01-08T14:36:01.130Z,99776.53
2023-01-08T14:38:29.935Z,99790.06
2023-01-08T14:41:05.150Z,99772.16
2023-01-08T14:43:44.567Z,99775.13
2023-01-08T14:46:21.758Z,99775.50
2023-01-08T14:48:54.494Z,99782.88
2023-01-08T14:51:26.908Z,99776.84
2023-01-08T14:53:59.249Z,99772.28
2023-01-08T14:56:32.600Z,99773.06
2023-01-08T14:59:09.029Z,99776.22
2023-01-08T15:01:38.288Z,99784.31
2023-01-08T15:04:17.403Z,99769.38
2023-01-08T15:06:48.047Z,99778.97
2023-01-08T15:09:23.677Z,99772.16
2023-01-08T15:11:56.218Z,99764.19
2023-01-08T15:14:31.270Z,99770.53
2023-01-08T15:17:06.594Z,99759.59
2023-01-08T15:19:41.630Z,99756.94
2023-01-08T15:22:19.480Z,99752.09
2023-01-08T15:24:59.547Z,99751.59
2023-01-08T15:27:31.485Z,99752.19
2023-01-08T15:30:04.010Z,99747.47
2023-01-08T15:32:37.553Z,99740.31
2023-01-08T15:35:16.811Z,99735.16
2023-01-08T15:37:46.096Z,99733.81
2023-01-08T15:40:15.153Z,99738.75
2023-01-08T15:43:02.569Z,99739.72
2023-01-08T15:45:35.282Z,99740.78
2023-01-08T15:48:05.290Z,99737.00
2023-01-08T15:50:45.801Z,99724.97
2023-01-08T15:53:20.197Z,99734.91
2023-01-08T15:55:50.694Z,99718.72
2023-01-08T15:58:20.081Z,99724.69
2023-01-08T16:00:50.634Z,99726.78
2023-01-08T16:03:20.346Z,99724.13
2023-01-08T16:05:48.978Z,99720.97
2023-01-08T16:08:17.941Z,99717.28
2023-01-08T16:10:48.165Z,99716.97
2023-01-08T16:13:17.805Z,99723.94
2023-01-08T16:15:47.347Z,99708.66
2023-01-08T16:18:22.368Z,99717.84
2023-01-08T16:20:51.247Z,99711.44
2023-01-08T16:23:19.993Z,99701.59
2023-01-08T16:25:53.426Z,99705.88
2023-01-08T16:28:28.255Z,99697.97
2023-01-08T16:30:57.054Z,99700.31
2023-01-08T16:33:29.111Z,99710.47
2023-01-08T16:35:59.536Z,99691.56
2023-01-08T16:38:29.088Z,99698.72
2023-01-08T16:40:58.723Z,99697.75
2023-01-08T16:43:29.179Z,99707.03
2023-01-08T16:46:04.508Z,99714.84
2023-01-08T16:48:34.718Z,99703.66
2023-01-08T16:51:09.067Z,99715.06
2023-01-08T16:53:39.188Z,99712.19
2023-01-08T16:59:18.297Z,99712.94
2023-01-08T17:01:51.755Z,99715.59
2023-01-08T17:04:22.811Z,99719.41
2023-01-08T17:06:51.472Z,99709.72
2023-01-08T17:09:20.853Z,99708.00
2023-01-08T17:11:51.380Z,99700.31
2023-01-08T17:14:20.624Z,99700.31
2023-01-08T17:16:49.956Z,99684.78
2023-01-08T17:19:19.355Z,99681.75
2023-01-08T17:25:27.423Z,99682.19
2023-01-08T17:27:56.446Z,99677.78
2023-01-08T17:30:26.804Z,99677.44
2023-01-08T17:32:56.205Z,99669.44
2023-01-08T17:35:26.187Z,99667.69
2023-01-08T17:37:57.688Z,99662.72
2023-01-08T17:40:26.667Z,99652.56
2023-01-08T17:42:57.858Z,99654.56
2023-01-08T17:45:35.712Z,99655.06
2023-01-08T17:48:08.086Z,99646.69
2023-01-08T17:50:40.955Z,99639.19
2023-01-08T17:53:11.436Z,99636.78
2023-01-08T17:55:41.605Z,99642.28
2023-01-08T17:58:10.149Z,99626.72
2023-01-08T18:00:39.580Z,99621.69
2023-01-08T18:03:08.145Z,99614.00
2023-01-08T18:05:39.998Z,99609.59
2023-01-08T18:08:08.632Z,99603.72
2023-01-08T18:10:39.824Z,99613.66
2023-01-08T18:13:10.179Z,99599.34
2023-01-08T18:15:38.693Z,99596.16
2023-01-08T18:18:07.752Z,99597.63
2023-01-08T18:20:36.662Z,99593.69
2023-01-08T18:23:05.221Z,99585.66
2023-01-08T18:25:34.421Z,99591.41
2023-01-08T18:28:06.817Z,99587.78
2023-01-08T18:30:41.796Z,99580.03
2023-01-08T18:33:12.016Z,99579.66
2023-01-08T18:35:47.251Z,99564.97
2023-01-08T18:38:17.246Z,99569.47
2023-01-08T18:40:48.681Z,99563.06
2023-01-08T18:43:18.498Z,99565.09
2023-01-08T18:45:49.507Z,99557.94
2023-01-08T18:48:25.297Z,99546.38
2023-01-08T18:50:54.347Z,99548.97
2023-01-08T18:53:26.349Z,99541.81
2023-01-08T18:55:56.698Z,99541.72
2023-01-08T18:58:28.214Z,99539.91
2023-01-08T19:00:57.257Z,99537.22
2023-01-08T19:03:25.874Z,99525.03
2023-01-08T19:05:54.918Z,99524.44
2023-01-08T19:08:23.747Z,99515.41
2023-01-08T19:10:52.774Z,99517.25
2023-01-08T19:13:22.031Z,99518.97
2023-01-08T19:16:01.803Z,99506.69
2023-01-08T19:18:30.361Z,99502.28
2023-01-08T19:21:00.104Z,99506.91
2023-01-08T19:23:29.157Z,99498.03
2023-01-08T19:25:58.863Z,99493.22
2023-01-08T19:28:29.301Z,99489.63
2023-01-08T19:31:01.423Z,99504.75
2023-01-08T19:33:31.004Z,99496.34
2023-01-08T19:36:08.696Z,99503.91
2023-01-08T19:38:37.934Z,99494.06
2023-01-08T19:41:27.340Z,99494.19
2023-01-08T19:43:57.153Z,99488.50
2023-01-08T19:46:30.567Z,99488.13
2023-01-08T19:49:01.085Z,99483.94
2023-01-08T19:51:34.587Z,99480.44
2023-01-08T19:54:03.762Z,99474.66
2023-01-08T19:56:35.932Z,99472.50
2023-01-08T19:59:05.151Z,99459.69
2023-01-08T20:01:36.984Z,99468.56
2023-01-08T20:04:06.072Z,99460.16
2023-01-08T20:06:36.230Z,99459.84
2023-01-08T20:09:05.629Z,99455.06
2023-01-08T20:11:34.629Z,99467.00
2023-01-08T20:14:08.915Z,99459.72
2023-01-08T20:16:39.863Z,99451.19
2023-01-08T20:19:09.068Z,99444.53
2023-01-08T20:21:40.392Z,99445.66
2023-01-08T20:24:14.011Z,99442.44
2023-01-08T20:26:44.328Z,99441.38
2023-01-08T20:29:16.994Z,99448.00
2023-01-08T20:31:47.091Z,99426.84
2023-01-08T20:34:17.749Z,99432.81
2023-01-08T20:36:48.183Z,99425.34
2023-01-08T20:39:22.380Z,99416.78
2023-01-08T20:41:55.847Z,99415.28
2023-01-08T20:44:34.716Z,99406.63
2023-01-08T20:47:05.401Z,99406.28
2023-01-08T20:49:34.652Z,99403.31
2023-01-08T20:52:06.405Z,99414.06
2023-01-08T20:54:35.506Z,99403.56
2023-01-08T20:57:06.787Z,99401.56
2023-01-08T20:59:35.819Z,99395.53
2023-01-08T21:02:07.313Z,99395.78
2023-01-08T21:04:40.178Z,99395.16
2023-01-08T21:07:09.196Z,99380.88
2023-01-08T21:09:40.265Z,99381.84
2023-01-08T21:12:09.408Z,99378.75
2023-01-08T21:14:38.232Z,99372.03
2023-01-08T21:17:08.649Z,99368.72
2023-01-08T21:19:37.443Z,99365.94
2023-01-08T21:22:06.275Z,99362.44
2023-01-08T21:24:34.845Z,99374.28
2023-01-08T21:27:04.572Z,99366.41
2023-01-08T21:29:34.273Z,99365.19
2023-01-08T21:32:05.734Z,99364.47
2023-01-08T21:34:37.411Z,99365.22
2023-01-08T21:37:10.677Z,99359.69
2023-01-08T21:39:40.811Z,99352.59
2023-01-08T21:42:28.348Z,99350.34
2023-01-08T21:45:14.345Z,99350.50
2023-01-08T21:47:45.520Z,99340.84
2023-01-08T21:50:16.052Z,99336.63
2023-01-08T21:53:02.831Z,99343.03
2023-01-08T21:55:34.021Z,99332.78
2023-01-08T21:58:02.830Z,99327.88
2023-01-08T22:00:32.522Z,99334.13
2023-01-08T22:03:04.045Z,99321.84
2023-01-08T22:05:34.559Z,99323.63
2023-01-08T22:08:05.960Z,99322.72
2023-01-08T22:10:36.491Z,99334.09
2023-01-08T22:13:07.214Z,99330.53
2023-01-08T22:15:35.760Z,99341.72
2023-01-08T22:18:05.528Z,99336.81
2023-01-08T22:20:37.360Z,99334.53
2023-01-08T22:23:06.993Z,99334.16
2023-01-08T22:25:41.835Z,99344.75
2023-01-08T22:28:14.783Z,99347.06
2023-01-08T22:30:44.503Z,99351.56
2023-01-08T22:33:13.181Z,99344.94
2023-01-08T22:35:44.756Z,99349.81
2023-01-08T22:38:17.752Z,99353.19
2023-01-08T22:40:47.442Z,99359.69
2023-01-08T22:43:16.309Z,99360.28
2023-01-08T22:45:49.130Z,99354.34
2023-01-08T22:48:18.304Z,99352.97
2023-01-08T22:50:48.676Z,99352.19
2023-01-08T22:53:22.556Z,99320.06
2023-01-08T22:55:51.962Z,99338.56
2023-01-08T22:58:24.328Z,99345.69
2023-01-08T23:00:54.239Z,99340.59
2023-01-08T23:03:28.683Z,99349.81
2023-01-08T23:06:04.505Z,99345.97
2023-01-08T23:08:34.610Z,99355.59
2023-01-08T23:11:04.227Z,99349.25
2023-01-08T23:13:34.478Z,99361.94
2023-01-08T23:16:04.085Z,99372.38
2023-01-08T23:18:33.336Z,99379.63
2023-01-08T23:21:06.141Z,99375.09
2023-01-08T23:23:35.724Z,99381.56
2023-01-08T23:26:06.178Z,99376.50
2023-01-08T23:28:35.898Z,99380.28
2023-01-08T23:31:10.382Z,99397.59
2023-01-08T23:33:39.812Z,99389.00
2023-01-08T23:36:12.465Z,99385.72
2023-01-08T23:38:41.173Z,99391.59
2023-01-08T23:41:10.639Z,99391.25
2023-01-08T23:43:39.472Z,99395.13
2023-01-08T23:46:08.930Z,99392.78
2023-01-08T23:48:41.544Z,99383.91
2023-01-08T23:51:11.824Z,99383.31
2023-01-08T23:53:40.417Z,99386.97
2023-01-08T23:56:09.643Z,99381.44
2023-01-08T23:58:38.600Z,99370.97
